createdAt,value
2022-08-08T00:02:03.843Z,73.93
2022-08-08T00:04:49.141Z,74.73
2022-08-08T00:07:48.171Z,74.60
2022-08-08T00:10:29.882Z,73.00
2022-08-08T00:13:20.998Z,77.70
2022-08-08T00:16:16.534Z,75.03
2022-08-08T00:18:48.233Z,76.83
2022-08-08T00:21:26.720Z,77.43
2022-08-08T00:24:11.772Z,73.43
2022-08-08T00:26:50.383Z,70.63
2022-08-08T00:29:44.139Z,72.17
2022-08-08T00:33:02.049Z,76.63
2022-08-08T00:38:31.303Z,76.77
2022-08-08T00:41:55.565Z,75.65
2022-08-08T00:44:52.857Z,72.97
2022-08-08T00:48:04.944Z,72.00
2022-08-08T00:51:02.305Z,74.80
2022-08-08T00:57:04.213Z,73.37
2022-08-08T00:59:59.427Z,72.53
2022-08-08T01:03:57.632Z,72.60
2022-08-08T01:06:27.001Z,75.33
2022-08-08T01:09:36.117Z,74.00
2022-08-08T01:12:47.302Z,75.27
2022-08-08T01:15:44.292Z,71.93
2022-08-08T01:18:53.523Z,76.47
2022-08-08T01:22:07.523Z,73.47
2022-08-08T01:24:54.172Z,71.77
2022-08-08T01:27:46.109Z,74.40
2022-08-08T01:31:00.534Z,75.73
2022-08-08T01:34:00.889Z,71.80
2022-08-08T01:37:01.862Z,75.80
2022-08-08T01:39:53.581Z,75.43
2022-08-08T01:42:36.231Z,73.47
2022-08-08T01:45:41.298Z,76.23
2022-08-08T01:48:34.124Z,74.37
2022-08-08T01:51:48.645Z,73.63
2022-08-08T01:55:25.863Z,73.97
2022-08-08T01:58:11.756Z,74.00
2022-08-08T02:01:15.772Z,75.30
2022-08-08T02:04:00.510Z,72.73
2022-08-08T02:06:57.190Z,74.03
2022-08-08T02:10:01.592Z,74.33
2022-08-08T02:12:50.555Z,71.93
2022-08-08T02:15:38.853Z,75.40
2022-08-08T02:18:27.212Z,73.60
2022-08-08T02:21:36.394Z,73.33
2022-08-08T02:24:19.864Z,73.47
2022-08-08T02:27:12.913Z,70.37
2022-08-08T02:30:05.943Z,72.77
2022-08-08T02:33:21.409Z,73.77
2022-08-08T02:36:16.308Z,72.53
2022-08-08T02:39:01.050Z,75.20
2022-08-08T02:41:59.048Z,72.37
2022-08-08T02:45:18.474Z,74.77
2022-08-08T02:48:14.744Z,74.55
2022-08-08T02:51:05.357Z,73.18
2022-08-08T02:56:52.420Z,77.70
2022-08-08T03:00:01.645Z,76.90
2022-08-08T03:05:00.697Z,71.67
2022-08-08T03:06:46.146Z,76.30
2022-08-08T03:09:41.487Z,77.40
2022-08-08T03:12:36.702Z,78.60
2022-08-08T03:15:56.483Z,74.37
2022-08-08T03:18:46.544Z,76.23
2022-08-08T03:21:26.968Z,76.20
2022-08-08T03:24:11.775Z,79.53
2022-08-08T03:27:05.297Z,78.63
2022-08-08T03:29:54.809Z,74.00
2022-08-08T03:32:56.918Z,72.27
2022-08-08T03:35:38.698Z,74.37
2022-08-08T03:38:57.989Z,75.53
2022-08-08T03:41:08.873Z,77.13
2022-08-08T03:43:59.582Z,74.27
2022-08-08T03:46:50.403Z,70.80
2022-08-08T03:50:01.196Z,73.27
2022-08-08T03:52:19.395Z,71.87
2022-08-08T03:55:09.793Z,74.83
2022-08-08T03:58:29.911Z,71.77
2022-08-08T04:01:02.275Z,78.03
2022-08-08T04:03:57.899Z,75.88
2022-08-08T04:06:39.499Z,75.80
2022-08-08T04:09:16.779Z,70.80
2022-08-08T04:12:00.433Z,73.63
2022-08-08T04:14:47.297Z,71.60
2022-08-08T04:17:58.336Z,75.10
2022-08-08T04:20:14.989Z,76.80
2022-08-08T04:22:51.588Z,75.03
2022-08-08T04:25:27.978Z,73.53
2022-08-08T04:28:35.037Z,71.70
2022-08-08T04:30:58.978Z,74.93
2022-08-08T04:33:38.646Z,73.37
2022-08-08T04:36:14.150Z,72.87
2022-08-08T04:38:46.011Z,73.87
2022-08-08T04:41:21.294Z,74.17
2022-08-08T04:43:57.202Z,76.68
2022-08-08T04:46:31.125Z,76.03
2022-08-08T04:49:03.727Z,74.35
2022-08-08T04:51:54.806Z,75.10
2022-08-08T04:54:40.178Z,77.37
2022-08-08T04:57:15.114Z,73.73
2022-08-08T04:59:47.608Z,80.50
2022-08-08T05:02:20.088Z,78.83
2022-08-08T05:04:55.545Z,79.33
2022-08-08T05:07:38.005Z,78.13
2022-08-08T05:10:16.347Z,77.57
2022-08-08T05:13:01.589Z,77.67
2022-08-08T05:16:51.150Z,81.80
2022-08-08T05:18:27.966Z,79.23
2022-08-08T05:21:00.602Z,77.13
2022-08-08T05:23:41.186Z,77.70
2022-08-08T05:26:19.745Z,75.70
2022-08-08T05:28:57.211Z,79.40
2022-08-08T05:32:03.444Z,82.10
2022-08-08T05:34:47.659Z,78.37
2022-08-08T05:37:39.017Z,81.47
2022-08-08T05:40:21.611Z,81.53
2022-08-08T05:43:38.629Z,83.40
2022-08-08T05:46:07.716Z,82.50
2022-08-08T05:48:43.733Z,87.87
2022-08-08T05:51:25.943Z,89.33
2022-08-08T05:54:28.036Z,86.57
2022-08-08T05:56:53.259Z,88.40
2022-08-08T05:59:59.390Z,88.30
2022-08-08T06:02:52.985Z,87.47
2022-08-08T06:05:35.460Z,94.17
2022-08-08T06:08:33.564Z,87.97
2022-08-08T06:11:10.993Z,94.17
2022-08-08T06:13:50.941Z,97.40
2022-08-08T06:16:30.377Z,95.30
2022-08-08T06:19:25.573Z,93.53
2022-08-08T06:21:59.463Z,94.20
2022-08-08T06:24:40.219Z,96.70
2022-08-08T06:27:35.961Z,96.00
2022-08-08T06:30:26.049Z,99.40
2022-08-08T06:33:01.035Z,103.40
2022-08-08T06:36:07.567Z,107.90
2022-08-08T06:38:31.904Z,102.80
2022-08-08T06:41:08.378Z,105.40
2022-08-08T06:43:57.129Z,104.80
2022-08-08T06:46:33.464Z,104.43
2022-08-08T06:49:06.405Z,101.47
2022-08-08T06:51:52.453Z,104.93
2022-08-08T06:54:32.559Z,105.57
2022-08-08T06:57:05.386Z,104.65
2022-08-08T07:00:02.605Z,109.20
2022-08-08T07:02:36.324Z,111.47
2022-08-08T07:05:20.648Z,112.00
2022-08-08T07:08:09.231Z,106.77
2022-08-08T07:10:52.021Z,114.03
2022-08-08T07:13:28.982Z,112.80
2022-08-08T07:16:11.743Z,112.83
2022-08-08T07:19:07.961Z,111.10
2022-08-08T07:21:59.156Z,112.57
2022-08-08T07:24:44.819Z,112.37
2022-08-08T07:27:35.481Z,114.47
2022-08-08T07:30:21.335Z,112.10
2022-08-08T07:33:01.343Z,116.17
2022-08-08T07:35:37.079Z,116.27
2022-08-08T07:38:20.321Z,118.45
2022-08-08T07:41:06.707Z,124.30
2022-08-08T07:43:43.033Z,120.03
2022-08-08T07:46:30.486Z,123.10
2022-08-08T07:49:09.848Z,122.05
2022-08-08T07:51:44.661Z,119.63
2022-08-08T07:54:33.291Z,122.88
2022-08-08T07:57:36.083Z,119.22
2022-08-08T08:00:16.790Z,123.07
2022-08-08T08:03:20.879Z,119.03
2022-08-08T08:05:58.748Z,118.13
2022-08-08T08:08:50.215Z,118.73
2022-08-08T08:11:38.101Z,114.37
2022-08-08T08:14:35.136Z,117.87
2022-08-08T08:17:09.768Z,119.33
2022-08-08T08:19:46.208Z,113.27
2022-08-08T08:22:31.467Z,117.63
2022-08-08T08:25:07.748Z,118.87
2022-08-08T08:27:47.017Z,119.33
2022-08-08T08:30:19.739Z,116.23
2022-08-08T08:32:52.253Z,116.80
2022-08-08T08:35:29.925Z,115.57
2022-08-08T08:38:20.878Z,120.03
2022-08-08T08:41:06.149Z,122.40
2022-08-08T08:43:52.133Z,123.90
2022-08-08T08:46:26.114Z,123.82
2022-08-08T08:48:59.284Z,122.57
2022-08-08T08:51:31.956Z,122.27
2022-08-08T08:54:08.056Z,125.17
2022-08-08T08:56:42.379Z,118.53
2022-08-08T08:59:58.695Z,114.77
2022-08-08T09:02:21.798Z,115.90
2022-08-08T09:04:59.382Z,116.93
2022-08-08T09:07:39.356Z,117.73
2022-08-08T09:10:28.999Z,123.43
2022-08-08T09:13:02.662Z,120.77
2022-08-08T09:15:41.024Z,113.78
2022-08-08T09:18:18.751Z,119.60
2022-08-08T09:21:57.303Z,115.80
2022-08-08T09:23:46.533Z,117.93
2022-08-08T09:26:32.518Z,116.63
2022-08-08T09:29:37.035Z,112.27
2022-08-08T09:32:38.403Z,113.43
2022-08-08T09:35:20.703Z,114.33
2022-08-08T09:38:05.664Z,109.63
2022-08-08T09:40:51.311Z,109.60
2022-08-08T09:44:05.155Z,108.27
2022-08-08T09:46:25.805Z,108.55
2022-08-08T09:49:18.544Z,109.07
2022-08-08T09:52:01.814Z,109.00
2022-08-08T09:54:44.700Z,113.57
2022-08-08T09:57:45.668Z,113.07
2022-08-08T10:00:49.768Z,116.80
2022-08-08T10:03:19.818Z,111.50
2022-08-08T10:05:52.131Z,113.67
2022-08-08T10:08:23.825Z,116.40
2022-08-08T10:10:58.721Z,114.50
2022-08-08T10:13:36.123Z,113.60
2022-08-08T10:16:13.702Z,107.60
2022-08-08T10:18:46.373Z,112.83
2022-08-08T10:21:26.237Z,116.07
2022-08-08T10:24:11.992Z,113.87
2022-08-08T10:27:05.582Z,108.67
2022-08-08T10:30:00.074Z,111.77
2022-08-08T10:32:34.410Z,105.33
2022-08-08T10:36:06.622Z,111.77
2022-08-08T10:38:15.151Z,109.97
2022-08-08T10:40:53.298Z,111.23
2022-08-08T10:43:36.529Z,107.80
2022-08-08T10:46:29.576Z,112.33
2022-08-08T10:49:01.854Z,111.10
2022-08-08T10:51:47.259Z,112.37
2022-08-08T10:54:25.090Z,109.30
2022-08-08T10:57:00.286Z,111.93
2022-08-08T10:59:39.730Z,109.88
2022-08-08T11:02:12.684Z,109.53
2022-08-08T11:04:53.672Z,104.50
2022-08-08T11:08:30.044Z,110.43
2022-08-08T11:10:28.819Z,113.00
2022-08-08T11:13:28.814Z,111.83
2022-08-08T11:16:00.820Z,103.17
2022-08-08T11:18:39.968Z,104.07
2022-08-08T11:21:19.550Z,101.70
2022-08-08T11:24:01.638Z,106.93
2022-08-08T11:26:56.311Z,106.07
2022-08-08T11:32:29.462Z,107.43
2022-08-08T11:35:25.975Z,107.33
2022-08-08T11:38:38.692Z,104.77
2022-08-08T11:40:55.880Z,106.87
2022-08-08T11:43:38.596Z,102.83
2022-08-08T11:46:17.873Z,103.93
2022-08-08T11:48:50.839Z,107.37
2022-08-08T11:51:38.438Z,106.07
2022-08-08T11:54:31.529Z,109.93
2022-08-08T11:57:27.362Z,102.87
2022-08-08T12:00:05.325Z,106.00
2022-08-08T12:02:57.586Z,104.70
2022-08-08T12:05:34.546Z,103.60
2022-08-08T12:08:07.723Z,104.43
2022-08-08T12:10:48.938Z,105.17
2022-08-08T12:13:37.603Z,105.30
2022-08-08T12:16:19.862Z,106.87
2022-08-08T12:18:53.817Z,105.40
2022-08-08T12:21:59.197Z,101.50
2022-08-08T12:24:27.700Z,105.07
2022-08-08T12:27:00.279Z,102.03
2022-08-08T12:29:41.856Z,103.47
2022-08-08T12:32:19.821Z,106.43
2022-08-08T12:35:04.419Z,101.80
2022-08-08T12:37:48.167Z,99.07
2022-08-08T12:40:56.891Z,106.67
2022-08-08T12:43:49.715Z,106.50
2022-08-08T12:46:28.959Z,101.73
2022-08-08T12:54:36.679Z,105.03
2022-08-08T12:57:24.190Z,100.17
2022-08-08T13:00:05.053Z,104.10
2022-08-08T13:02:51.504Z,105.87
2022-08-08T13:05:27.117Z,104.23
2022-08-08T13:08:19.779Z,104.47
2022-08-08T13:10:56.751Z,105.23
2022-08-08T13:13:37.061Z,102.93
2022-08-08T13:16:25.534Z,105.27
2022-08-08T13:19:09.203Z,104.40
2022-08-08T13:21:53.251Z,98.50
2022-08-08T13:24:48.550Z,96.87
2022-08-08T13:27:29.968Z,98.70
2022-08-08T13:30:08.740Z,101.90
2022-08-08T13:32:42.197Z,100.37
2022-08-08T13:35:25.018Z,98.73
2022-08-08T13:38:08.508Z,100.97
2022-08-08T13:40:45.860Z,99.57
2022-08-08T13:43:18.667Z,101.55
2022-08-08T13:45:52.695Z,101.07
2022-08-08T13:48:26.189Z,102.38
2022-08-08T13:51:33.518Z,101.67
2022-08-08T13:54:00.013Z,99.43
2022-08-08T13:56:53.597Z,99.47
2022-08-08T13:59:39.230Z,102.77
2022-08-08T14:02:14.653Z,101.17
2022-08-08T14:05:21.755Z,103.97
2022-08-08T14:07:59.407Z,103.97
2022-08-08T14:10:37.495Z,101.70
2022-08-08T14:13:30.404Z,101.47
2022-08-08T14:16:15.860Z,100.43
2022-08-08T14:19:00.582Z,103.70
2022-08-08T14:21:52.266Z,102.73
2022-08-08T14:24:33.346Z,102.33
2022-08-08T14:27:18.817Z,100.90
2022-08-08T14:30:17.114Z,101.93
2022-08-08T14:32:53.255Z,103.60
2022-08-08T14:35:35.123Z,102.17
2022-08-08T14:38:33.919Z,100.17
2022-08-08T14:41:45.276Z,100.20
2022-08-08T14:44:19.582Z,101.03
2022-08-08T14:47:01.428Z,98.87
2022-08-08T14:49:51.518Z,101.13
2022-08-08T14:52:26.429Z,103.57
2022-08-08T14:54:59.082Z,104.03
2022-08-08T14:58:06.495Z,102.53
2022-08-08T15:00:23.798Z,98.03
2022-08-08T15:05:54.712Z,99.83
2022-08-08T15:08:33.525Z,97.60
2022-08-08T15:11:11.686Z,96.33
2022-08-08T15:14:01.657Z,102.40
2022-08-08T15:16:35.110Z,105.43
2022-08-08T15:19:07.131Z,105.03
2022-08-08T15:21:42.838Z,106.13
2022-08-08T15:24:15.892Z,100.47
2022-08-08T15:26:53.125Z,103.77
2022-08-08T15:29:25.601Z,100.93
2022-08-08T15:32:18.985Z,99.27
2022-08-08T15:34:49.626Z,98.30
2022-08-08T15:37:21.721Z,104.77
2022-08-08T15:39:54.009Z,99.37
2022-08-08T15:42:41.517Z,96.37
2022-08-08T15:45:13.233Z,96.97
2022-08-08T15:48:05.270Z,98.60
2022-08-08T15:50:56.549Z,95.57
2022-08-08T15:53:33.174Z,98.13
2022-08-08T15:56:13.150Z,99.70
2022-08-08T15:58:48.237Z,102.40
2022-08-08T16:01:21.008Z,99.37
2022-08-08T16:03:54.212Z,98.80
2022-08-08T16:06:28.368Z,100.13
2022-08-08T16:13:02.147Z,97.63
2022-08-08T16:13:03.182Z,102.10
2022-08-08T16:14:52.663Z,95.27
2022-08-08T16:17:38.739Z,101.77
2022-08-08T16:20:17.521Z,97.50
2022-08-08T16:22:52.176Z,98.43
2022-08-08T16:25:45.689Z,103.63
2022-08-08T16:28:22.704Z,98.83
2022-08-08T16:31:07.978Z,99.17
2022-08-08T16:33:41.205Z,95.20
2022-08-08T16:36:27.978Z,99.53
2022-08-08T16:39:17.062Z,99.30
2022-08-08T16:42:01.000Z,95.80
2022-08-08T16:44:34.479Z,95.73
2022-08-08T16:47:40.382Z,96.53
2022-08-08T16:50:16.664Z,96.30
2022-08-08T16:55:03.233Z,95.80
2022-08-08T16:55:55.736Z,96.17
2022-08-08T16:58:32.586Z,99.37
2022-08-08T17:01:10.936Z,98.53
2022-08-08T17:03:58.711Z,101.87
2022-08-08T17:06:36.797Z,98.17
2022-08-08T17:09:15.095Z,100.10
2022-08-08T17:11:49.218Z,100.50
2022-08-08T17:14:27.623Z,99.50
2022-08-08T17:17:23.051Z,98.73
2022-08-08T17:19:59.676Z,95.53
2022-08-08T17:22:39.393Z,99.97
2022-08-08T17:25:14.229Z,96.87
2022-08-08T17:27:49.779Z,96.43
2022-08-08T17:30:29.104Z,98.97
2022-08-08T17:34:36.683Z,97.17
2022-08-08T17:36:10.017Z,91.67
2022-08-08T17:38:43.072Z,94.50
2022-08-08T17:41:15.597Z,96.10
2022-08-08T17:44:00.921Z,94.10
2022-08-08T17:46:42.742Z,90.17
2022-08-08T17:49:23.985Z,95.93
2022-08-08T17:51:56.603Z,96.17
2022-08-08T17:54:29.051Z,93.93
2022-08-08T17:57:03.510Z,95.27
2022-08-08T17:59:45.612Z,90.83
2022-08-08T18:02:21.305Z,94.20
2022-08-08T18:04:55.218Z,93.40
2022-08-08T18:08:03.375Z,94.68
2022-08-08T18:10:31.767Z,94.30
2022-08-08T18:13:07.476Z,90.88
2022-08-08T18:15:40.713Z,95.63
2022-08-08T18:18:28.616Z,94.07
2022-08-08T18:21:10.446Z,91.37
2022-08-08T18:23:55.848Z,92.63
2022-08-08T18:26:28.937Z,97.47
2022-08-08T18:29:01.607Z,93.33
2022-08-08T18:31:33.374Z,91.87
2022-08-08T18:34:25.674Z,92.77
2022-08-08T18:36:57.512Z,95.60
2022-08-08T18:39:29.420Z,94.07
2022-08-08T18:42:03.663Z,94.70
2022-08-08T18:44:36.206Z,92.80
2022-08-08T18:47:07.948Z,100.50
2022-08-08T18:49:41.162Z,99.07
2022-08-08T18:52:33.925Z,98.20
2022-08-08T18:55:10.292Z,95.13
2022-08-08T18:57:44.893Z,86.70
2022-08-08T19:00:20.221Z,94.57
2022-08-08T19:03:04.226Z,91.00
2022-08-08T19:05:45.105Z,88.33
2022-08-08T19:08:25.644Z,92.10
2022-08-08T19:11:02.164Z,87.87
2022-08-08T19:13:47.284Z,94.50
2022-08-08T19:16:28.473Z,92.03
2022-08-08T19:19:12.352Z,86.83
2022-08-08T19:21:49.490Z,89.50
2022-08-08T19:24:42.776Z,89.03
2022-08-08T19:27:14.914Z,87.30
2022-08-08T19:29:46.707Z,84.57
2022-08-08T19:32:25.457Z,85.73
2022-08-08T19:34:57.157Z,83.22
2022-08-08T19:37:43.543Z,81.43
2022-08-08T19:40:21.967Z,82.83
2022-08-08T19:43:02.870Z,83.77
2022-08-08T19:45:59.397Z,82.77
2022-08-08T19:48:33.504Z,88.03
2022-08-08T19:51:05.230Z,87.90
2022-08-08T19:53:53.501Z,81.53
2022-08-08T19:56:40.247Z,81.67
2022-08-08T19:59:13.111Z,83.43
2022-08-08T20:02:01.006Z,87.03
2022-08-08T20:04:34.071Z,81.43
2022-08-08T20:08:27.917Z,81.93
2022-08-08T20:10:00.702Z,81.88
2022-08-08T20:12:35.397Z,82.20
2022-08-08T20:15:16.780Z,82.20
2022-08-08T20:17:48.914Z,86.87
2022-08-08T20:20:22.195Z,81.50
2022-08-08T20:22:56.968Z,81.80
2022-08-08T20:25:30.067Z,78.43
2022-08-08T20:28:07.882Z,82.07
2022-08-08T20:30:55.938Z,85.17
2022-08-08T20:34:27.719Z,81.57
2022-08-08T20:36:23.077Z,79.80
2022-08-08T20:38:59.439Z,78.93
2022-08-08T20:41:35.303Z,82.18
2022-08-08T20:44:07.306Z,82.40
2022-08-08T20:46:40.700Z,80.95
2022-08-08T20:49:21.868Z,81.43
2022-08-08T20:51:53.602Z,81.13
2022-08-08T20:54:28.251Z,81.50
2022-08-08T20:57:04.045Z,76.80
2022-08-08T20:59:48.738Z,78.07
2022-08-08T21:02:25.747Z,82.23
2022-08-08T21:05:01.178Z,83.07
2022-08-08T21:08:33.635Z,81.17
2022-08-08T21:10:28.449Z,83.93
2022-08-08T21:13:01.568Z,82.07
2022-08-08T21:16:05.650Z,76.73
2022-08-08T21:18:28.184Z,79.53
2022-08-08T21:21:00.203Z,77.80
2022-08-08T21:26:27.299Z,77.77
2022-08-08T21:29:00.557Z,80.73
2022-08-08T21:31:58.700Z,77.97
2022-08-08T21:34:24.040Z,78.70
2022-08-08T21:37:11.472Z,79.43
2022-08-08T21:39:56.651Z,80.20
2022-08-08T21:42:28.812Z,76.73
2022-08-08T21:45:20.814Z,79.67
2022-08-08T21:48:06.451Z,75.87
2022-08-08T21:50:43.596Z,76.30
2022-08-08T21:54:22.798Z,77.97
2022-08-08T21:56:20.043Z,76.67
2022-08-08T21:59:01.630Z,79.40
2022-08-08T22:01:40.616Z,73.17
2022-08-08T22:04:13.173Z,77.50
2022-08-08T22:06:47.074Z,78.35
2022-08-08T22:09:18.937Z,77.00
2022-08-08T22:12:04.516Z,82.60
2022-08-08T22:14:42.759Z,77.90
2022-08-08T22:17:17.104Z,75.47
2022-08-08T22:20:12.399Z,79.13
2022-08-08T22:22:40.770Z,79.13
2022-08-08T22:25:24.802Z,84.03
2022-08-08T22:30:36.477Z,79.33
2022-08-08T22:34:10.895Z,79.80
2022-08-08T22:36:12.479Z,77.22
2022-08-08T22:38:48.250Z,76.47
2022-08-08T22:41:23.331Z,78.07
2022-08-08T22:44:02.731Z,75.93
2022-08-08T22:46:39.013Z,78.37
2022-08-08T22:49:11.591Z,79.18
2022-08-08T22:51:49.582Z,75.53
2022-08-08T22:54:30.101Z,77.07
2022-08-08T22:57:17.958Z,78.90
2022-08-08T22:59:59.281Z,78.80
2022-08-08T23:02:32.005Z,79.93
2022-08-08T23:05:07.600Z,78.30
2022-08-08T23:07:51.644Z,79.67
2022-08-08T23:10:29.580Z,79.80
2022-08-08T23:13:01.221Z,78.33
2022-08-08T23:16:41.522Z,76.33
2022-08-08T23:18:28.465Z,76.97
2022-08-08T23:21:04.517Z,74.23
2022-08-08T23:23:48.396Z,75.17
2022-08-08T23:26:20.529Z,74.27
2022-08-08T23:28:54.834Z,79.17
2022-08-08T23:31:26.439Z,74.53
2022-08-08T23:34:16.474Z,75.93
2022-08-08T23:36:57.927Z,72.33
2022-08-08T23:39:41.490Z,77.30
2022-08-08T23:42:13.928Z,74.80
2022-08-08T23:44:47.992Z,79.47
2022-08-08T23:48:59.645Z,76.03
2022-08-08T23:50:29.835Z,75.50
2022-08-08T23:53:03.689Z,73.17
2022-08-08T23:55:42.089Z,71.73
2022-08-08T23:58:31.880Z,78.30
